sensor_id;sensor_type;location;lat;lon;timestamp;P1;durP1;ratioP1;P2;durP2;ratioP2
23410;SDS011;11878;51.774;7.220;2022-11-25T00:01:08;7.93;;;1.83;;
23410;SDS011;11878;51.774;7.220;2022-11-25T00:04:12;6.83;;;1.53;;
23410;SDS011;11878;51.774;7.220;2022-11-25T00:07:14;3.87;;;1.50;;
23410;SDS011;11878;51.774;7.220;2022-11-25T00:10:16;12.93;;;1.70;;
23410;SDS011;11878;51.774;7.220;2022-11-25T00:13:18;10.60;;;1.50;;
23410;SDS011;11878;51.774;7.220;2022-11-25T00:16:20;11.80;;;2.07;;
23410;SDS011;11878;51.774;7.220;2022-11-25T00:19:23;8.07;;;1.60;;
23410;SDS011;11878;51.774;7.220;2022-11-25T00:22:24;5.70;;;1.50;;
23410;SDS011;11878;51.774;7.220;2022-11-25T00:25:26;9.67;;;1.60;;
23410;SDS011;11878;51.774;7.220;2022-11-25T00:28:28;7.30;;;2.00;;
23410;SDS011;11878;51.774;7.220;2022-11-25T00:31:34;5.03;;;1.60;;
23410;SDS011;11878;51.774;7.220;2022-11-25T00:34:38;8.83;;;2.07;;
23410;SDS011;11878;51.774;7.220;2022-11-25T00:37:41;11.40;;;2.67;;
23410;SDS011;11878;51.774;7.220;2022-11-25T00:40:42;3.97;;;0.80;;
23410;SDS011;11878;51.774;7.220;2022-11-25T00:44:04;6.53;;;1.77;;
23410;SDS011;11878;51.774;7.220;2022-11-25T00:47:24;13.60;;;1.77;;
23410;SDS011;11878;51.774;7.220;2022-11-25T00:50:27;7.77;;;1.43;;
23410;SDS011;11878;51.774;7.220;2022-11-25T00:53:29;8.10;;;1.57;;
23410;SDS011;11878;51.774;7.220;2022-11-25T00:56:31;16.30;;;2.23;;
23410;SDS011;11878;51.774;7.220;2022-11-25T00:59:33;9.77;;;1.80;;
23410;SDS011;11878;51.774;7.220;2022-11-25T01:02:34;10.40;;;2.20;;
23410;SDS011;11878;51.774;7.220;2022-11-25T01:05:36;4.50;;;1.20;;
23410;SDS011;11878;51.774;7.220;2022-11-25T01:08:38;7.30;;;1.67;;
23410;SDS011;11878;51.774;7.220;2022-11-25T01:11:40;12.23;;;1.60;;
23410;SDS011;11878;51.774;7.220;2022-11-25T01:14:42;9.00;;;1.70;;
23410;SDS011;11878;51.774;7.220;2022-11-25T01:17:47;18.60;;;2.27;;
23410;SDS011;11878;51.774;7.220;2022-11-25T01:20:49;10.00;;;1.43;;
23410;SDS011;11878;51.774;7.220;2022-11-25T01:23:52;11.57;;;1.90;;
23410;SDS011;11878;51.774;7.220;2022-11-25T01:26:54;4.27;;;1.33;;
23410;SDS011;11878;51.774;7.220;2022-11-25T01:29:56;10.27;;;1.10;;
23410;SDS011;11878;51.774;7.220;2022-11-25T01:32:57;23.13;;;2.23;;
23410;SDS011;11878;51.774;7.220;2022-11-25T01:36:07;6.03;;;1.40;;
23410;SDS011;11878;51.774;7.220;2022-11-25T01:39:23;4.50;;;1.00;;
23410;SDS011;11878;51.774;7.220;2022-11-25T01:42:32;6.03;;;1.40;;
23410;SDS011;11878;51.774;7.220;2022-11-25T01:45:35;4.83;;;1.20;;
23410;SDS011;11878;51.774;7.220;2022-11-25T01:48:54;6.43;;;1.20;;
23410;SDS011;11878;51.774;7.220;2022-11-25T01:52:10;12.20;;;1.50;;
23410;SDS011;11878;51.774;7.220;2022-11-25T01:55:16;9.27;;;1.47;;
23410;SDS011;11878;51.774;7.220;2022-11-25T01:58:25;7.93;;;1.50;;
23410;SDS011;11878;51.774;7.220;2022-11-25T02:01:30;7.73;;;1.07;;
23410;SDS011;11878;51.774;7.220;2022-11-25T02:04:33;7.57;;;1.10;;
23410;SDS011;11878;51.774;7.220;2022-11-25T02:07:39;4.67;;;1.07;;
23410;SDS011;11878;51.774;7.220;2022-11-25T02:10:44;13.43;;;1.73;;
23410;SDS011;11878;51.774;7.220;2022-11-25T02:13:47;8.03;;;1.50;;
23410;SDS011;11878;51.774;7.220;2022-11-25T02:16:51;10.27;;;1.97;;
23410;SDS011;11878;51.774;7.220;2022-11-25T02:20:04;10.50;;;1.57;;
23410;SDS011;11878;51.774;7.220;2022-11-25T02:26:08;6.07;;;2.10;;
23410;SDS011;11878;51.774;7.220;2022-11-25T02:29:10;11.23;;;1.70;;
23410;SDS011;11878;51.774;7.220;2022-11-25T02:32:12;6.53;;;1.40;;
23410;SDS011;11878;51.774;7.220;2022-11-25T02:38:35;8.07;;;1.20;;
23410;SDS011;11878;51.774;7.220;2022-11-25T02:41:48;10.70;;;1.57;;
23410;SDS011;11878;51.774;7.220;2022-11-25T02:44:54;7.13;;;1.27;;
23410;SDS011;11878;51.774;7.220;2022-11-25T02:47:57;9.77;;;1.70;;
23410;SDS011;11878;51.774;7.220;2022-11-25T02:50:59;4.27;;;1.43;;
23410;SDS011;11878;51.774;7.220;2022-11-25T02:54:01;8.83;;;1.30;;
23410;SDS011;11878;51.774;7.220;2022-11-25T02:57:03;6.33;;;1.77;;
23410;SDS011;11878;51.774;7.220;2022-11-25T03:00:07;8.13;;;1.50;;
23410;SDS011;11878;51.774;7.220;2022-11-25T03:03:12;16.73;;;1.50;;
23410;SDS011;11878;51.774;7.220;2022-11-25T03:06:14;8.73;;;1.63;;
23410;SDS011;11878;51.774;7.220;2022-11-25T03:09:16;9.93;;;1.40;;
23410;SDS011;11878;51.774;7.220;2022-11-25T03:12:18;7.40;;;1.27;;
23410;SDS011;11878;51.774;7.220;2022-11-25T03:15:20;7.13;;;1.53;;
23410;SDS011;11878;51.774;7.220;2022-11-25T03:18:22;5.40;;;1.77;;
23410;SDS011;11878;51.774;7.220;2022-11-25T03:21:24;11.60;;;1.63;;
23410;SDS011;11878;51.774;7.220;2022-11-25T03:24:26;12.80;;;2.03;;
23410;SDS011;11878;51.774;7.220;2022-11-25T03:27:27;7.43;;;1.50;;
23410;SDS011;11878;51.774;7.220;2022-11-25T03:30:31;9.30;;;1.97;;
23410;SDS011;11878;51.774;7.220;2022-11-25T03:33:35;7.13;;;1.73;;
23410;SDS011;11878;51.774;7.220;2022-11-25T03:36:37;16.73;;;2.23;;
23410;SDS011;11878;51.774;7.220;2022-11-25T03:39:39;7.23;;;1.37;;
23410;SDS011;11878;51.774;7.220;2022-11-25T03:42:41;11.97;;;2.43;;
23410;SDS011;11878;51.774;7.220;2022-11-25T03:45:46;8.73;;;1.73;;
23410;SDS011;11878;51.774;7.220;2022-11-25T03:48:50;10.43;;;1.60;;
23410;SDS011;11878;51.774;7.220;2022-11-25T03:51:52;7.67;;;1.43;;
23410;SDS011;11878;51.774;7.220;2022-11-25T03:54:54;5.53;;;1.30;;
23410;SDS011;11878;51.774;7.220;2022-11-25T03:57:59;5.03;;;1.53;;
23410;SDS011;11878;51.774;7.220;2022-11-25T04:01:02;6.97;;;1.50;;
23410;SDS011;11878;51.774;7.220;2022-11-25T04:04:04;12.53;;;1.70;;
23410;SDS011;11878;51.774;7.220;2022-11-25T04:07:06;6.13;;;1.43;;
23410;SDS011;11878;51.774;7.220;2022-11-25T04:10:08;3.70;;;1.40;;
23410;SDS011;11878;51.774;7.220;2022-11-25T04:13:10;3.63;;;1.20;;
23410;SDS011;11878;51.774;7.220;2022-11-25T04:16:17;9.03;;;1.70;;
23410;SDS011;11878;51.774;7.220;2022-11-25T04:19:25;5.53;;;1.60;;
23410;SDS011;11878;51.774;7.220;2022-11-25T04:22:26;11.97;;;1.93;;
23410;SDS011;11878;51.774;7.220;2022-11-25T04:25:29;6.93;;;1.67;;
23410;SDS011;11878;51.774;7.220;2022-11-25T04:28:31;8.70;;;1.80;;
23410;SDS011;11878;51.774;7.220;2022-11-25T04:31:33;6.47;;;1.67;;
23410;SDS011;11878;51.774;7.220;2022-11-25T04:34:35;13.77;;;1.97;;
23410;SDS011;11878;51.774;7.220;2022-11-25T04:37:37;10.07;;;2.17;;
23410;SDS011;11878;51.774;7.220;2022-11-25T04:40:39;19.33;;;1.97;;
23410;SDS011;11878;51.774;7.220;2022-11-25T04:43:49;5.30;;;1.30;;
23410;SDS011;11878;51.774;7.220;2022-11-25T04:46:51;8.23;;;1.50;;
23410;SDS011;11878;51.774;7.220;2022-11-25T04:49:54;9.37;;;2.20;;
23410;SDS011;11878;51.774;7.220;2022-11-25T04:52:56;8.50;;;1.67;;
23410;SDS011;11878;51.774;7.220;2022-11-25T04:55:58;8.23;;;1.90;;
23410;SDS011;11878;51.774;7.220;2022-11-25T04:59:01;11.83;;;2.40;;
23410;SDS011;11878;51.774;7.220;2022-11-25T05:02:22;7.50;;;1.30;;
23410;SDS011;11878;51.774;7.220;2022-11-25T05:05:34;6.13;;;1.57;;
23410;SDS011;11878;51.774;7.220;2022-11-25T05:08:38;10.13;;;1.83;;
23410;SDS011;11878;51.774;7.220;2022-11-25T05:11:40;10.37;;;2.17;;
23410;SDS011;11878;51.774;7.220;2022-11-25T05:14:42;9.30;;;1.73;;
23410;SDS011;11878;51.774;7.220;2022-11-25T05:17:44;15.07;;;2.27;;
23410;SDS011;11878;51.774;7.220;2022-11-25T05:20:47;11.37;;;2.03;;
23410;SDS011;11878;51.774;7.220;2022-11-25T05:23:53;9.27;;;1.60;;
23410;SDS011;11878;51.774;7.220;2022-11-25T05:26:57;13.77;;;2.10;;
23410;SDS011;11878;51.774;7.220;2022-11-25T05:29:59;7.13;;;1.70;;
23410;SDS011;11878;51.774;7.220;2022-11-25T05:33:01;15.93;;;2.27;;
23410;SDS011;11878;51.774;7.220;2022-11-25T05:36:03;6.33;;;2.20;;
23410;SDS011;11878;51.774;7.220;2022-11-25T05:39:16;12.17;;;2.17;;
23410;SDS011;11878;51.774;7.220;2022-11-25T05:42:37;11.07;;;1.97;;
23410;SDS011;11878;51.774;7.220;2022-11-25T05:45:41;8.60;;;2.37;;
23410;SDS011;11878;51.774;7.220;2022-11-25T05:48:44;8.53;;;2.20;;
23410;SDS011;11878;51.774;7.220;2022-11-25T05:51:46;20.10;;;3.13;;
23410;SDS011;11878;51.774;7.220;2022-11-25T05:54:49;3.77;;;1.30;;
23410;SDS011;11878;51.774;7.220;2022-11-25T05:57:57;10.83;;;1.83;;
23410;SDS011;11878;51.774;7.220;2022-11-25T06:01:06;8.10;;;1.60;;
23410;SDS011;11878;51.774;7.220;2022-11-25T06:04:09;9.63;;;2.73;;
23410;SDS011;11878;51.774;7.220;2022-11-25T06:07:13;10.83;;;2.40;;
23410;SDS011;11878;51.774;7.220;2022-11-25T06:10:15;14.80;;;3.30;;
23410;SDS011;11878;51.774;7.220;2022-11-25T06:13:18;8.13;;;2.00;;
23410;SDS011;11878;51.774;7.220;2022-11-25T06:16:21;10.03;;;2.00;;
23410;SDS011;11878;51.774;7.220;2022-11-25T06:19:33;13.77;;;2.47;;
23410;SDS011;11878;51.774;7.220;2022-11-25T06:22:36;10.30;;;2.33;;
23410;SDS011;11878;51.774;7.220;2022-11-25T06:25:38;14.73;;;2.23;;
23410;SDS011;11878;51.774;7.220;2022-11-25T06:28:40;10.07;;;2.00;;
23410;SDS011;11878;51.774;7.220;2022-11-25T06:31:42;8.00;;;1.90;;
23410;SDS011;11878;51.774;7.220;2022-11-25T06:35:01;7.93;;;1.80;;
23410;SDS011;11878;51.774;7.220;2022-11-25T06:38:19;13.40;;;1.97;;
23410;SDS011;11878;51.774;7.220;2022-11-25T06:41:21;12.23;;;2.10;;
23410;SDS011;11878;51.774;7.220;2022-11-25T06:44:23;13.23;;;2.33;;
23410;SDS011;11878;51.774;7.220;2022-11-25T06:47:24;6.03;;;1.53;;
23410;SDS011;11878;51.774;7.220;2022-11-25T06:50:26;11.57;;;2.10;;
23410;SDS011;11878;51.774;7.220;2022-11-25T06:53:29;6.50;;;2.10;;
23410;SDS011;11878;51.774;7.220;2022-11-25T06:56:31;10.07;;;2.10;;
23410;SDS011;11878;51.774;7.220;2022-11-25T06:59:33;7.37;;;1.83;;
23410;SDS011;11878;51.774;7.220;2022-11-25T07:02:35;9.97;;;2.73;;
23410;SDS011;11878;51.774;7.220;2022-11-25T07:05:44;13.93;;;2.27;;
23410;SDS011;11878;51.774;7.220;2022-11-25T07:08:46;8.57;;;2.17;;
23410;SDS011;11878;51.774;7.220;2022-11-25T07:11:48;9.20;;;1.97;;
23410;SDS011;11878;51.774;7.220;2022-11-25T07:14:50;12.80;;;2.43;;
23410;SDS011;11878;51.774;7.220;2022-11-25T07:17:52;9.17;;;1.77;;
23410;SDS011;11878;51.774;7.220;2022-11-25T07:20:53;13.77;;;2.53;;
23410;SDS011;11878;51.774;7.220;2022-11-25T07:23:56;13.83;;;2.20;;
23410;SDS011;11878;51.774;7.220;2022-11-25T07:27:02;12.57;;;2.80;;
23410;SDS011;11878;51.774;7.220;2022-11-25T07:30:06;11.37;;;3.23;;
23410;SDS011;11878;51.774;7.220;2022-11-25T07:33:28;10.10;;;2.47;;
23410;SDS011;11878;51.774;7.220;2022-11-25T07:36:31;14.00;;;2.53;;
23410;SDS011;11878;51.774;7.220;2022-11-25T07:39:34;15.70;;;3.20;;
23410;SDS011;11878;51.774;7.220;2022-11-25T07:42:36;26.80;;;3.57;;
23410;SDS011;11878;51.774;7.220;2022-11-25T07:45:41;17.10;;;3.03;;
23410;SDS011;11878;51.774;7.220;2022-11-25T07:48:44;11.20;;;3.10;;
23410;SDS011;11878;51.774;7.220;2022-11-25T07:51:50;9.53;;;2.33;;
23410;SDS011;11878;51.774;7.220;2022-11-25T07:54:57;10.50;;;2.77;;
23410;SDS011;11878;51.774;7.220;2022-11-25T07:57:59;9.20;;;1.87;;
23410;SDS011;11878;51.774;7.220;2022-11-25T08:01:01;8.83;;;2.10;;
23410;SDS011;11878;51.774;7.220;2022-11-25T08:04:04;9.13;;;2.57;;
23410;SDS011;11878;51.774;7.220;2022-11-25T08:07:09;7.73;;;3.17;;
23410;SDS011;11878;51.774;7.220;2022-11-25T08:10:11;14.83;;;2.90;;
23410;SDS011;11878;51.774;7.220;2022-11-25T08:13:12;11.77;;;2.87;;
23410;SDS011;11878;51.774;7.220;2022-11-25T08:16:15;9.47;;;2.10;;
23410;SDS011;11878;51.774;7.220;2022-11-25T08:19:18;22.33;;;3.27;;
23410;SDS011;11878;51.774;7.220;2022-11-25T08:22:20;5.70;;;2.63;;
23410;SDS011;11878;51.774;7.220;2022-11-25T08:25:22;5.53;;;2.27;;
23410;SDS011;11878;51.774;7.220;2022-11-25T08:28:23;12.80;;;2.83;;
23410;SDS011;11878;51.774;7.220;2022-11-25T08:31:26;5.33;;;1.97;;
23410;SDS011;11878;51.774;7.220;2022-11-25T08:34:30;12.70;;;3.07;;
23410;SDS011;11878;51.774;7.220;2022-11-25T08:37:35;15.07;;;2.53;;
23410;SDS011;11878;51.774;7.220;2022-11-25T08:40:37;11.30;;;2.77;;
23410;SDS011;11878;51.774;7.220;2022-11-25T08:43:43;8.23;;;2.70;;
23410;SDS011;11878;51.774;7.220;2022-11-25T08:46:45;8.63;;;2.73;;
23410;SDS011;11878;51.774;7.220;2022-11-25T08:49:50;9.77;;;2.40;;
23410;SDS011;11878;51.774;7.220;2022-11-25T08:52:53;9.30;;;2.97;;
23410;SDS011;11878;51.774;7.220;2022-11-25T08:55:55;8.77;;;3.07;;
23410;SDS011;11878;51.774;7.220;2022-11-25T08:58:57;11.07;;;2.73;;
23410;SDS011;11878;51.774;7.220;2022-11-25T09:02:00;8.07;;;2.80;;
23410;SDS011;11878;51.774;7.220;2022-11-25T09:05:02;14.10;;;3.13;;
23410;SDS011;11878;51.774;7.220;2022-11-25T09:08:04;11.03;;;2.70;;
23410;SDS011;11878;51.774;7.220;2022-11-25T09:11:07;16.37;;;3.20;;
23410;SDS011;11878;51.774;7.220;2022-11-25T09:14:10;8.60;;;3.00;;
23410;SDS011;11878;51.774;7.220;2022-11-25T09:17:12;7.93;;;2.90;;
23410;SDS011;11878;51.774;7.220;2022-11-25T09:20:15;12.83;;;2.47;;
23410;SDS011;11878;51.774;7.220;2022-11-25T09:23:17;15.30;;;2.93;;
23410;SDS011;11878;51.774;7.220;2022-11-25T09:26:21;7.43;;;2.30;;
23410;SDS011;11878;51.774;7.220;2022-11-25T09:29:27;10.80;;;3.10;;
23410;SDS011;11878;51.774;7.220;2022-11-25T09:32:31;13.07;;;3.70;;
23410;SDS011;11878;51.774;7.220;2022-11-25T09:35:32;12.73;;;4.73;;
23410;SDS011;11878;51.774;7.220;2022-11-25T09:38:34;11.97;;;4.53;;
23410;SDS011;11878;51.774;7.220;2022-11-25T09:50:02;11.77;;;3.10;;
23410;SDS011;11878;51.774;7.220;2022-11-25T09:56:46;10.10;;;3.13;;
23410;SDS011;11878;51.774;7.220;2022-11-25T10:03:33;11.47;;;3.90;;
23410;SDS011;11878;51.774;7.220;2022-11-25T10:06:44;10.20;;;3.30;;
23410;SDS011;11878;51.774;7.220;2022-11-25T10:09:55;8.67;;;3.87;;
23410;SDS011;11878;51.774;7.220;2022-11-25T10:13:01;6.13;;;3.77;;
23410;SDS011;11878;51.774;7.220;2022-11-25T10:16:06;10.57;;;2.83;;
23410;SDS011;11878;51.774;7.220;2022-11-25T10:22:39;7.50;;;2.97;;
23410;SDS011;11878;51.774;7.220;2022-11-25T10:25:45;13.83;;;3.00;;
23410;SDS011;11878;51.774;7.220;2022-11-25T10:28:56;6.63;;;2.97;;
23410;SDS011;11878;51.774;7.220;2022-11-25T10:32:21;5.20;;;2.07;;
23410;SDS011;11878;51.774;7.220;2022-11-25T10:35:30;5.53;;;2.57;;
23410;SDS011;11878;51.774;7.220;2022-11-25T10:42:18;7.70;;;2.07;;
23410;SDS011;11878;51.774;7.220;2022-11-25T10:45:25;6.83;;;2.13;;
23410;SDS011;11878;51.774;7.220;2022-11-25T10:48:42;5.87;;;1.90;;
23410;SDS011;11878;51.774;7.220;2022-11-25T10:51:49;6.73;;;2.53;;
23410;SDS011;11878;51.774;7.220;2022-11-25T10:54:55;8.27;;;2.23;;
23410;SDS011;11878;51.774;7.220;2022-11-25T10:57:58;4.17;;;1.33;;
23410;SDS011;11878;51.774;7.220;2022-11-25T11:01:20;9.40;;;3.03;;
23410;SDS011;11878;51.774;7.220;2022-11-25T11:04:23;5.87;;;1.87;;
23410;SDS011;11878;51.774;7.220;2022-11-25T11:07:26;6.47;;;1.80;;
23410;SDS011;11878;51.774;7.220;2022-11-25T11:10:36;6.30;;;2.00;;
23410;SDS011;11878;51.774;7.220;2022-11-25T11:13:38;7.07;;;1.97;;
23410;SDS011;11878;51.774;7.220;2022-11-25T11:16:41;13.67;;;2.57;;
23410;SDS011;11878;51.774;7.220;2022-11-25T11:19:58;8.07;;;2.00;;
23410;SDS011;11878;51.774;7.220;2022-11-25T11:23:10;5.87;;;1.40;;
23410;SDS011;11878;51.774;7.220;2022-11-25T11:26:24;6.50;;;1.47;;
23410;SDS011;11878;51.774;7.220;2022-11-25T11:29:33;7.07;;;2.10;;
23410;SDS011;11878;51.774;7.220;2022-11-25T11:32:36;10.53;;;1.83;;
23410;SDS011;11878;51.774;7.220;2022-11-25T11:35:46;8.87;;;1.67;;
23410;SDS011;11878;51.774;7.220;2022-11-25T11:39:00;9.60;;;1.50;;
23410;SDS011;11878;51.774;7.220;2022-11-25T11:42:12;7.93;;;1.77;;
23410;SDS011;11878;51.774;7.220;2022-11-25T11:51:41;5.40;;;1.60;;
23410;SDS011;11878;51.774;7.220;2022-11-25T11:55:02;7.77;;;1.43;;
23410;SDS011;11878;51.774;7.220;2022-11-25T11:58:27;5.63;;;1.80;;
23410;SDS011;11878;51.774;7.220;2022-11-25T12:05:17;5.47;;;1.87;;
23410;SDS011;11878;51.774;7.220;2022-11-25T12:11:52;8.70;;;2.03;;
23410;SDS011;11878;51.774;7.220;2022-11-25T12:15:03;12.50;;;2.00;;
23410;SDS011;11878;51.774;7.220;2022-11-25T12:18:19;6.67;;;1.23;;
23410;SDS011;11878;51.774;7.220;2022-11-25T12:27:49;6.80;;;1.57;;
23410;SDS011;11878;51.774;7.220;2022-11-25T12:31:10;7.03;;;1.50;;
23410;SDS011;11878;51.774;7.220;2022-11-25T12:34:33;5.80;;;1.27;;
23410;SDS011;11878;51.774;7.220;2022-11-25T12:40:53;7.13;;;2.00;;
23410;SDS011;11878;51.774;7.220;2022-11-25T12:44:06;8.73;;;1.60;;
23410;SDS011;11878;51.774;7.220;2022-11-25T12:47:15;7.17;;;1.70;;
23410;SDS011;11878;51.774;7.220;2022-11-25T12:50:26;9.27;;;1.77;;
23410;SDS011;11878;51.774;7.220;2022-11-25T12:57:37;7.17;;;1.27;;
23410;SDS011;11878;51.774;7.220;2022-11-25T13:01:10;5.20;;;1.10;;
23410;SDS011;11878;51.774;7.220;2022-11-25T13:08:42;4.30;;;1.23;;
23410;SDS011;11878;51.774;7.220;2022-11-25T13:18:37;7.73;;;1.50;;
23410;SDS011;11878;51.774;7.220;2022-11-25T13:22:00;9.73;;;1.73;;
23410;SDS011;11878;51.774;7.220;2022-11-25T13:25:16;7.73;;;1.40;;
23410;SDS011;11878;51.774;7.220;2022-11-25T13:28:29;8.90;;;1.67;;
23410;SDS011;11878;51.774;7.220;2022-11-25T13:41:33;5.00;;;1.13;;
23410;SDS011;11878;51.774;7.220;2022-11-25T13:44:56;10.37;;;2.00;;
23410;SDS011;11878;51.774;7.220;2022-11-25T13:48:05;7.13;;;2.23;;
23410;SDS011;11878;51.774;7.220;2022-11-25T13:51:21;6.40;;;2.03;;
23410;SDS011;11878;51.774;7.220;2022-11-25T13:54:26;7.97;;;2.40;;
23410;SDS011;11878;51.774;7.220;2022-11-25T13:57:36;6.40;;;1.87;;
23410;SDS011;11878;51.774;7.220;2022-11-25T14:00:46;9.63;;;2.80;;
23410;SDS011;11878;51.774;7.220;2022-11-25T14:03:52;6.67;;;2.20;;
23410;SDS011;11878;51.774;7.220;2022-11-25T14:07:00;11.43;;;1.63;;
23410;SDS011;11878;51.774;7.220;2022-11-25T14:23:43;18.73;;;3.20;;
23410;SDS011;11878;51.774;7.220;2022-11-25T14:26:51;8.47;;;2.63;;
23410;SDS011;11878;51.774;7.220;2022-11-25T14:29:55;7.07;;;2.20;;
23410;SDS011;11878;51.774;7.220;2022-11-25T14:33:01;14.67;;;2.53;;
23410;SDS011;11878;51.774;7.220;2022-11-25T14:36:09;10.30;;;2.10;;
23410;SDS011;11878;51.774;7.220;2022-11-25T14:39:21;8.90;;;2.53;;
23410;SDS011;11878;51.774;7.220;2022-11-25T14:42:31;5.97;;;3.00;;
23410;SDS011;11878;51.774;7.220;2022-11-25T14:45:38;10.33;;;2.50;;
23410;SDS011;11878;51.774;7.220;2022-11-25T14:48:40;13.10;;;1.97;;
23410;SDS011;11878;51.774;7.220;2022-11-25T14:51:44;8.60;;;1.63;;
23410;SDS011;11878;51.774;7.220;2022-11-25T14:54:48;6.93;;;1.60;;
23410;SDS011;11878;51.774;7.220;2022-11-25T14:57:52;8.07;;;1.57;;
23410;SDS011;11878;51.774;7.220;2022-11-25T15:07:22;12.80;;;1.80;;
23410;SDS011;11878;51.774;7.220;2022-11-25T15:10:32;14.33;;;1.83;;
23410;SDS011;11878;51.774;7.220;2022-11-25T15:13:44;11.20;;;1.73;;
23410;SDS011;11878;51.774;7.220;2022-11-25T15:16:54;7.57;;;1.50;;
23410;SDS011;11878;51.774;7.220;2022-11-25T15:20:02;8.33;;;3.33;;
23410;SDS011;11878;51.774;7.220;2022-11-25T15:23:10;11.87;;;4.27;;
23410;SDS011;11878;51.774;7.220;2022-11-25T15:26:22;10.03;;;3.07;;
23410;SDS011;11878;51.774;7.220;2022-11-25T15:29:26;9.17;;;2.90;;
23410;SDS011;11878;51.774;7.220;2022-11-25T15:32:30;12.47;;;3.07;;
23410;SDS011;11878;51.774;7.220;2022-11-25T15:35:33;11.10;;;3.40;;
23410;SDS011;11878;51.774;7.220;2022-11-25T15:38:40;8.07;;;3.00;;
23410;SDS011;11878;51.774;7.220;2022-11-25T15:41:44;10.10;;;2.87;;
23410;SDS011;11878;51.774;7.220;2022-11-25T15:44:51;12.70;;;2.50;;
23410;SDS011;11878;51.774;7.220;2022-11-25T15:48:03;12.60;;;2.60;;
23410;SDS011;11878;51.774;7.220;2022-11-25T15:51:13;12.57;;;3.07;;
23410;SDS011;11878;51.774;7.220;2022-11-25T15:54:41;9.17;;;2.47;;
23410;SDS011;11878;51.774;7.220;2022-11-25T15:57:48;11.53;;;3.00;;
23410;SDS011;11878;51.774;7.220;2022-11-25T16:01:01;10.67;;;1.97;;
23410;SDS011;11878;51.774;7.220;2022-11-25T16:04:18;9.00;;;1.93;;
23410;SDS011;11878;51.774;7.220;2022-11-25T16:07:21;10.43;;;2.10;;
23410;SDS011;11878;51.774;7.220;2022-11-25T16:13:33;8.40;;;2.07;;
23410;SDS011;11878;51.774;7.220;2022-11-25T16:16:36;8.07;;;2.13;;
23410;SDS011;11878;51.774;7.220;2022-11-25T16:19:42;11.53;;;2.17;;
23410;SDS011;11878;51.774;7.220;2022-11-25T16:22:46;13.27;;;2.40;;
23410;SDS011;11878;51.774;7.220;2022-11-25T16:26:00;7.03;;;2.10;;
23410;SDS011;11878;51.774;7.220;2022-11-25T16:29:12;13.83;;;3.20;;
23410;SDS011;11878;51.774;7.220;2022-11-25T16:32:17;15.77;;;3.27;;
23410;SDS011;11878;51.774;7.220;2022-11-25T16:35:24;10.37;;;2.90;;
23410;SDS011;11878;51.774;7.220;2022-11-25T16:38:25;13.23;;;2.20;;
23410;SDS011;11878;51.774;7.220;2022-11-25T16:41:27;6.70;;;2.27;;
23410;SDS011;11878;51.774;7.220;2022-11-25T16:44:30;14.00;;;2.83;;
23410;SDS011;11878;51.774;7.220;2022-11-25T16:47:34;7.53;;;2.90;;
23410;SDS011;11878;51.774;7.220;2022-11-25T16:50:36;10.27;;;2.83;;
23410;SDS011;11878;51.774;7.220;2022-11-25T16:53:37;10.87;;;2.97;;
23410;SDS011;11878;51.774;7.220;2022-11-25T16:56:40;15.03;;;2.73;;
23410;SDS011;11878;51.774;7.220;2022-11-25T16:59:43;13.27;;;2.70;;
23410;SDS011;11878;51.774;7.220;2022-11-25T17:02:46;6.83;;;2.63;;
23410;SDS011;11878;51.774;7.220;2022-11-25T17:05:48;17.13;;;3.70;;
23410;SDS011;11878;51.774;7.220;2022-11-25T17:08:50;9.37;;;3.40;;
23410;SDS011;11878;51.774;7.220;2022-11-25T17:11:52;14.83;;;3.23;;
23410;SDS011;11878;51.774;7.220;2022-11-25T17:14:55;8.20;;;3.17;;
23410;SDS011;11878;51.774;7.220;2022-11-25T17:17:56;10.10;;;3.33;;
23410;SDS011;11878;51.774;7.220;2022-11-25T17:21:00;12.47;;;3.47;;
23410;SDS011;11878;51.774;7.220;2022-11-25T17:24:05;9.47;;;2.77;;
23410;SDS011;11878;51.774;7.220;2022-11-25T17:27:22;9.03;;;3.47;;
23410;SDS011;11878;51.774;7.220;2022-11-25T17:30:27;12.53;;;2.67;;
23410;SDS011;11878;51.774;7.220;2022-11-25T17:36:35;12.07;;;2.73;;
23410;SDS011;11878;51.774;7.220;2022-11-25T17:39:36;8.30;;;3.23;;
23410;SDS011;11878;51.774;7.220;2022-11-25T17:42:38;6.40;;;3.13;;
23410;SDS011;11878;51.774;7.220;2022-11-25T17:45:42;10.07;;;3.47;;
23410;SDS011;11878;51.774;7.220;2022-11-25T17:48:44;6.13;;;2.53;;
23410;SDS011;11878;51.774;7.220;2022-11-25T17:51:46;15.23;;;3.07;;
23410;SDS011;11878;51.774;7.220;2022-11-25T17:54:47;11.03;;;2.70;;
23410;SDS011;11878;51.774;7.220;2022-11-25T17:57:49;10.27;;;3.30;;
23410;SDS011;11878;51.774;7.220;2022-11-25T18:00:51;16.73;;;3.40;;
23410;SDS011;11878;51.774;7.220;2022-11-25T18:03:52;12.13;;;2.57;;
23410;SDS011;11878;51.774;7.220;2022-11-25T18:06:54;7.37;;;3.20;;
23410;SDS011;11878;51.774;7.220;2022-11-25T18:09:56;10.53;;;3.23;;
23410;SDS011;11878;51.774;7.220;2022-11-25T18:12:58;12.93;;;2.80;;
23410;SDS011;11878;51.774;7.220;2022-11-25T18:16:00;12.27;;;2.90;;
23410;SDS011;11878;51.774;7.220;2022-11-25T18:19:02;9.93;;;2.77;;
23410;SDS011;11878;51.774;7.220;2022-11-25T18:22:11;8.17;;;2.23;;
23410;SDS011;11878;51.774;7.220;2022-11-25T18:25:15;11.37;;;2.20;;
23410;SDS011;11878;51.774;7.220;2022-11-25T18:28:19;9.30;;;3.33;;
23410;SDS011;11878;51.774;7.220;2022-11-25T18:31:24;7.47;;;2.73;;
23410;SDS011;11878;51.774;7.220;2022-11-25T18:34:26;9.03;;;2.80;;
23410;SDS011;11878;51.774;7.220;2022-11-25T18:37:28;14.93;;;4.00;;
23410;SDS011;11878;51.774;7.220;2022-11-25T18:40:30;12.57;;;3.60;;
23410;SDS011;11878;51.774;7.220;2022-11-25T18:43:32;10.87;;;3.50;;
23410;SDS011;11878;51.774;7.220;2022-11-25T18:46:35;8.53;;;3.50;;
23410;SDS011;11878;51.774;7.220;2022-11-25T18:49:38;11.77;;;4.00;;
23410;SDS011;11878;51.774;7.220;2022-11-25T18:52:39;15.70;;;4.27;;
23410;SDS011;11878;51.774;7.220;2022-11-25T18:55:41;20.03;;;5.03;;
23410;SDS011;11878;51.774;7.220;2022-11-25T18:58:44;15.93;;;6.00;;
23410;SDS011;11878;51.774;7.220;2022-11-25T19:01:50;16.10;;;6.57;;
23410;SDS011;11878;51.774;7.220;2022-11-25T19:04:53;9.33;;;4.47;;
23410;SDS011;11878;51.774;7.220;2022-11-25T19:07:55;8.33;;;3.93;;
23410;SDS011;11878;51.774;7.220;2022-11-25T19:10:58;12.10;;;4.47;;
23410;SDS011;11878;51.774;7.220;2022-11-25T19:14:43;17.17;;;5.70;;
23410;SDS011;11878;51.774;7.220;2022-11-25T19:17:30;16.77;;;5.53;;
23410;SDS011;11878;51.774;7.220;2022-11-25T19:20:32;13.40;;;5.33;;
23410;SDS011;11878;51.774;7.220;2022-11-25T19:23:34;15.63;;;4.67;;
23410;SDS011;11878;51.774;7.220;2022-11-25T19:26:38;13.40;;;4.20;;
23410;SDS011;11878;51.774;7.220;2022-11-25T19:29:43;8.80;;;4.40;;
23410;SDS011;11878;51.774;7.220;2022-11-25T19:32:46;16.20;;;5.03;;
23410;SDS011;11878;51.774;7.220;2022-11-25T19:35:50;10.07;;;4.70;;
23410;SDS011;11878;51.774;7.220;2022-11-25T19:38:52;13.73;;;4.00;;
23410;SDS011;11878;51.774;7.220;2022-11-25T19:41:54;17.57;;;5.97;;
23410;SDS011;11878;51.774;7.220;2022-11-25T19:44:56;21.33;;;6.40;;
23410;SDS011;11878;51.774;7.220;2022-11-25T19:47:57;12.23;;;4.77;;
23410;SDS011;11878;51.774;7.220;2022-11-25T19:51:05;11.40;;;4.83;;
23410;SDS011;11878;51.774;7.220;2022-11-25T19:54:13;18.77;;;5.03;;
23410;SDS011;11878;51.774;7.220;2022-11-25T19:57:20;16.47;;;4.37;;
23410;SDS011;11878;51.774;7.220;2022-11-25T20:00:23;11.07;;;4.37;;
23410;SDS011;11878;51.774;7.220;2022-11-25T20:03:27;13.07;;;5.37;;
23410;SDS011;11878;51.774;7.220;2022-11-25T20:06:30;21.93;;;5.13;;
23410;SDS011;11878;51.774;7.220;2022-11-25T20:09:33;17.93;;;5.17;;
23410;SDS011;11878;51.774;7.220;2022-11-25T20:12:34;17.80;;;5.53;;